Time;durP1;ratioP1;P1;durP2;ratioP2;P2;SDS_P1;SDS_P2;PMS_P1;PMS_P2;Temp;Humidity;BMP_temperature;BMP_pressure;BME280_temperature;BME280_humidity;BME280_pressure;Samples;Min_cycle;Max_cycle;Signal;HPM_P1;HPM_P2
2023/11/16 00:02:05;;;;;;;12.00;11.40;;;9.90;99.90;;;;;;4920042;29;20454;-76
2023/11/16 00:04:34;;;;;;;12.53;11.93;;;9.90;99.90;;;;;;4922752;29;20966;-76
2023/11/16 00:07:06;;;;;;;13.33;12.43;;;9.90;99.90;;;;;;4921644;29;20555;-79
2023/11/16 00:09:34;;;;;;;12.80;12.20;;;9.80;99.90;;;;;;4922033;29;20545;-77
2023/11/16 00:12:03;;;;;;;14.63;13.67;;;9.90;99.90;;;;;;4920058;29;20468;-76
2023/11/16 00:14:31;;;;;;;15.80;14.57;;;9.80;99.90;;;;;;4920540;29;20463;-79
2023/11/16 00:16:59;;;;;;;15.10;14.10;;;9.70;99.90;;;;;;4919739;29;20466;-78
2023/11/16 00:19:29;;;;;;;15.60;14.50;;;9.70;99.90;;;;;;4921594;29;20470;-78
2023/11/16 00:21:57;;;;;;;15.10;14.30;;;9.70;99.90;;;;;;4923219;29;21086;-80
2023/11/16 00:24:26;;;;;;;13.30;12.60;;;9.70;99.90;;;;;;4921474;29;20490;-77
2023/11/16 00:26:55;;;;;;;16.10;14.73;;;9.70;99.90;;;;;;4921767;29;20454;-77
2023/11/16 00:29:23;;;;;;;14.80;13.87;;;9.70;99.90;;;;;;4918997;29;21062;-77
2023/11/16 00:31:51;;;;;;;12.60;12.00;;;9.80;99.90;;;;;;4922727;29;20465;-76
2023/11/16 00:34:19;;;;;;;13.67;12.87;;;9.70;99.40;;;;;;4918779;29;20558;-78
2023/11/16 00:36:49;;;;;;;15.40;14.27;;;9.70;99.90;;;;;;4918199;29;20453;-80
2023/11/16 00:39:19;;;;;;;13.53;12.60;;;9.70;99.90;;;;;;4922200;29;20473;-80
2023/11/16 00:41:48;;;;;;;12.10;11.60;;;9.60;99.90;;;;;;4923376;29;20461;-76
2023/11/16 00:44:19;;;;;;;11.97;11.57;;;9.70;99.90;;;;;;4920700;29;20462;-77
2023/11/16 00:46:48;;;;;;;11.97;11.57;;;9.70;99.90;;;;;;4920035;29;20515;-77
2023/11/16 00:49:17;;;;;;;12.30;11.70;;;9.60;99.90;;;;;;4919389;29;20481;-77
2023/11/16 00:51:46;;;;;;;12.60;11.90;;;9.70;99.90;;;;;;4918671;29;20465;-77
2023/11/16 00:54:15;;;;;;;12.07;11.67;;;9.70;99.90;;;;;;4922002;29;20445;-76
2023/11/16 00:56:45;;;;;;;11.80;11.40;;;9.80;99.90;;;;;;4920020;29;20465;-77
2023/11/16 00:59:14;;;;;;;11.10;10.80;;;9.80;36.40;;;;;;4921169;29;20569;-77
2023/11/16 01:01:43;;;;;;;11.83;11.23;;;9.80;1.00;;;;;;4920412;29;20472;-77
2023/11/16 01:04:13;;;;;;;11.80;11.10;;;9.70;1.00;;;;;;4917117;29;21616;-79
2023/11/16 01:06:42;;;;;;;11.37;11.03;;;9.80;1.00;;;;;;4916862;29;20452;-77
2023/11/16 01:09:11;;;;;;;11.87;11.47;;;9.80;1.00;;;;;;4918125;29;20580;-79
2023/11/16 01:11:40;;;;;;;11.60;11.20;;;9.80;1.00;;;;;;4919654;29;20467;-78
2023/11/16 01:14:09;;;;;;;10.90;10.60;;;9.80;1.00;;;;;;4919749;29;20461;-75
2023/11/16 01:16:41;;;;;;;11.60;10.90;;;9.80;1.00;;;;;;4918614;29;20544;-78
2023/11/16 01:19:09;;;;;;;15.53;11.40;;;9.80;1.00;;;;;;4921444;29;20517;-78
2023/11/16 01:21:41;;;;;;;10.93;10.37;;;9.80;1.00;;;;;;4921942;29;20470;-80
2023/11/16 01:24:10;;;;;;;12.87;12.20;;;9.80;1.00;;;;;;4923614;29;20462;-79
2023/11/16 01:26:40;;;;;;;12.17;11.77;;;9.70;46.60;;;;;;4924197;29;20480;-78
2023/11/16 01:29:09;;;;;;;12.03;11.43;;;9.80;99.90;;;;;;4923017;29;20557;-78
2023/11/16 01:31:39;;;;;;;11.53;11.17;;;9.80;99.90;;;;;;4924277;29;20809;-78
2023/11/16 01:34:09;;;;;;;11.63;11.10;;;9.80;99.90;;;;;;4922128;29;20462;-78
2023/11/16 01:36:38;;;;;;;11.60;11.10;;;9.80;99.90;;;;;;4922599;29;20456;-80
2023/11/16 01:39:06;;;;;;;11.50;11.00;;;9.70;99.90;;;;;;4922233;29;20484;-80
2023/11/16 01:41:35;;;;;;;11.87;11.20;;;9.70;99.90;;;;;;4925716;29;20492;-77
2023/11/16 01:44:05;;;;;;;11.67;11.27;;;9.70;99.90;;;;;;4922104;29;20484;-77
2023/11/16 01:46:34;;;;;;;11.17;10.70;;;9.70;99.90;;;;;;4923318;29;20466;-78
2023/11/16 01:49:04;;;;;;;11.80;11.23;;;9.70;99.90;;;;;;4923872;29;20482;-77
2023/11/16 01:51:35;;;;;;;11.20;10.97;;;9.70;99.90;;;;;;4924026;29;20512;-78
2023/11/16 01:54:06;;;;;;;13.43;12.83;;;9.80;99.90;;;;;;4922144;29;20480;-78
2023/11/16 01:56:36;;;;;;;11.03;10.47;;;9.80;28.00;;;;;;4924342;29;20596;-79
2023/11/16 01:59:06;;;;;;;10.90;10.57;;;9.70;58.40;;;;;;4921261;29;20473;-78
2023/11/16 02:01:35;;;;;;;11.03;10.53;;;9.70;63.20;;;;;;4922297;29;20489;-80
2023/11/16 02:04:04;;;;;;;11.43;10.80;;;9.70;1.00;;;;;;4926327;29;20461;-77
2023/11/16 02:06:40;;;;;;;11.50;10.90;;;9.70;53.00;;;;;;4921333;29;20552;-78
2023/11/16 02:09:09;;;;;;;11.77;11.17;;;9.70;1.00;;;;;;4921720;29;21041;-80
2023/11/16 02:11:38;;;;;;;11.70;11.10;;;9.70;99.90;;;;;;4924499;29;20548;-77
2023/11/16 02:14:10;;;;;;;11.77;11.20;;;9.70;99.90;;;;;;4924290;29;22512;-78
2023/11/16 02:16:39;;;;;;;12.63;12.23;;;9.70;99.90;;;;;;4920399;29;20495;-77
2023/11/16 02:19:21;;;;;;;12.03;11.57;;;9.60;1.00;;;;;;4923214;29;20543;-78
2023/11/16 02:21:51;;;;;;;12.00;11.30;;;9.60;1.00;;;;;;4924260;29;20501;-78
2023/11/16 02:24:20;;;;;;;11.70;11.30;;;9.60;1.00;;;;;;4922718;29;20458;-79
2023/11/16 02:26:48;;;;;;;12.00;11.40;;;9.70;1.00;;;;;;4922746;29;20469;-78
2023/11/16 02:29:16;;;;;;;11.60;11.30;;;9.60;1.00;;;;;;4924001;29;20529;-77
2023/11/16 02:31:44;;;;;;;11.80;11.40;;;9.70;99.90;;;;;;4922704;29;20468;-76
2023/11/16 02:34:12;;;;;;;11.63;11.13;;;9.70;99.90;;;;;;4922728;29;20476;-76
2023/11/16 02:36:40;;;;;;;11.33;10.97;;;9.70;1.00;;;;;;4922330;29;20978;-76
2023/11/16 02:39:13;;;;;;;11.53;11.23;;;9.80;99.90;;;;;;4919413;29;20477;-79
2023/11/16 02:41:42;;;;;;;11.53;11.13;;;9.70;99.90;;;;;;4922387;29;20476;-78
2023/11/16 02:44:10;;;;;;;12.00;11.30;;;9.80;99.90;;;;;;4922207;29;20469;-77
2023/11/16 02:46:38;;;;;;;11.37;11.07;;;9.70;99.90;;;;;;4920840;29;20470;-77
2023/11/16 02:49:07;;;;;;;11.70;11.10;;;9.70;99.90;;;;;;4920341;29;20879;-77
2023/11/16 02:51:35;;;;;;;12.13;11.57;;;9.70;99.90;;;;;;4923447;29;20461;-78
2023/11/16 02:54:06;;;;;;;12.27;11.67;;;9.70;99.90;;;;;;4923179;29;20461;-78
2023/11/16 02:56:35;;;;;;;12.17;11.50;;;9.70;99.90;;;;;;4917554;29;20544;-75
2023/11/16 02:59:04;;;;;;;12.20;11.80;;;9.70;99.90;;;;;;4923856;29;20528;-77
2023/11/16 03:01:32;;;;;;;11.57;11.10;;;9.70;99.90;;;;;;4923118;29;20490;-79
2023/11/16 03:04:01;;;;;;;11.73;11.33;;;9.70;99.90;;;;;;4922538;29;20989;-78
2023/11/16 03:06:30;;;;;;;11.30;11.00;;;9.70;99.90;;;;;;4921874;29;20465;-77
2023/11/16 03:08:58;;;;;;;11.00;10.70;;;9.70;99.90;;;;;;4923101;29;20547;-77
2023/11/16 03:11:27;;;;;;;11.60;11.10;;;9.70;99.90;;;;;;4923100;29;20493;-78
2023/11/16 03:13:55;;;;;;;12.57;12.07;;;9.70;99.90;;;;;;4920265;29;20554;-77
2023/11/16 03:16:24;;;;;;;12.10;11.23;;;9.70;1.00;;;;;;4920178;29;20477;-77
2023/11/16 03:18:52;;;;;;;11.23;10.83;;;9.60;1.00;;;;;;4922237;29;20564;-79
2023/11/16 03:21:20;;;;;;;11.50;11.10;;;9.60;1.00;;;;;;4920593;29;20875;-78
2023/11/16 03:23:48;;;;;;;11.63;10.93;;;9.70;1.00;;;;;;4919309;29;20469;-76
2023/11/16 03:26:16;;;;;;;11.17;10.97;;;9.70;1.00;;;;;;4921925;29;20466;-76
2023/11/16 03:28:44;;;;;;;11.37;11.17;;;9.60;1.00;;;;;;4921799;29;20486;-78
2023/11/16 03:31:13;;;;;;;12.43;11.63;;;9.60;22.30;;;;;;4917378;29;20453;-73
2023/11/16 03:33:43;;;;;;;11.73;11.23;;;9.70;99.90;;;;;;4922094;29;20500;-76
2023/11/16 03:36:13;;;;;;;11.47;11.10;;;9.60;99.90;;;;;;4921140;29;20575;-76
2023/11/16 03:38:41;;;;;;;11.10;10.80;;;9.60;99.90;;;;;;4919739;29;20568;-77
2023/11/16 03:41:10;;;;;;;11.73;11.33;;;9.60;99.90;;;;;;4916754;29;20489;-79
2023/11/16 03:43:40;;;;;;;12.20;11.63;;;9.50;99.90;;;;;;4922958;29;20865;-76
2023/11/16 03:46:08;;;;;;;11.97;11.57;;;9.60;1.00;;;;;;4919947;29;20546;-75
2023/11/16 03:48:37;;;;;;;11.87;11.37;;;9.50;1.00;;;;;;4922426;29;21101;-76
2023/11/16 03:51:07;;;;;;;11.63;11.33;;;9.50;99.90;;;;;;4918790;29;20798;-75
2023/11/16 03:53:35;;;;;;;12.00;11.57;;;9.50;1.00;;;;;;4922608;29;20453;-76
2023/11/16 03:56:04;;;;;;;12.00;11.60;;;9.50;1.00;;;;;;4922256;29;20469;-77
2023/11/16 03:58:32;;;;;;;12.60;12.00;;;9.50;1.00;;;;;;4918826;29;21128;-78
2023/11/16 04:01:00;;;;;;;12.10;11.40;;;9.50;99.90;;;;;;4918752;29;20481;-76
2023/11/16 04:03:28;;;;;;;11.80;11.50;;;9.50;6.00;;;;;;4921105;29;20453;-77
2023/11/16 04:05:59;;;;;;;11.20;10.80;;;9.50;1.00;;;;;;4921380;29;20461;-76
2023/11/16 04:08:28;;;;;;;11.90;11.40;;;9.50;1.00;;;;;;4919206;29;20508;-79
2023/11/16 04:10:57;;;;;;;12.60;12.07;;;9.50;1.00;;;;;;4921591;29;20464;-76
2023/11/16 04:13:25;;;;;;;12.37;11.80;;;9.50;1.00;;;;;;4919666;29;20465;-76
2023/11/16 04:15:56;;;;;;;12.07;11.70;;;9.50;1.00;;;;;;4923739;29;20954;-77
2023/11/16 04:18:24;;;;;;;12.30;11.90;;;9.50;1.00;;;;;;4922967;29;20560;-79
2023/11/16 04:20:53;;;;;;;13.00;12.30;;;9.50;1.00;;;;;;4921162;29;20461;-76
2023/11/16 04:23:21;;;;;;;12.20;11.70;;;9.60;1.00;;;;;;4920246;29;20549;-76
2023/11/16 04:25:54;;;;;;;12.40;11.97;;;9.50;99.90;;;;;;4921418;29;21186;-76
2023/11/16 04:28:22;;;;;;;12.77;12.37;;;9.50;1.00;;;;;;4921166;29;21023;-78
2023/11/16 04:30:51;;;;;;;13.03;12.50;;;9.50;99.90;;;;;;4918390;29;20463;-76
2023/11/16 04:33:20;;;;;;;13.03;12.23;;;9.50;99.90;;;;;;4919313;29;20902;-76
2023/11/16 04:35:52;;;;;;;13.20;12.40;;;9.50;99.90;;;;;;4916292;29;20483;-77
2023/11/16 04:38:22;;;;;;;12.57;11.90;;;9.50;99.90;;;;;;4922085;29;20522;-76
2023/11/16 04:40:51;;;;;;;12.60;12.00;;;9.60;99.90;;;;;;4919152;29;20495;-79
2023/11/16 04:43:20;;;;;;;12.17;11.77;;;9.50;99.90;;;;;;4918366;29;20489;-79
2023/11/16 04:45:50;;;;;;;12.70;12.20;;;9.50;99.90;;;;;;4920467;29;20462;-77
2023/11/16 04:48:18;;;;;;;12.73;12.00;;;9.50;99.90;;;;;;4921486;29;20577;-79
2023/11/16 04:50:47;;;;;;;11.97;11.57;;;9.60;99.90;;;;;;4921561;29;21190;-76
2023/11/16 04:53:15;;;;;;;12.27;11.80;;;9.50;1.00;;;;;;4920459;29;20451;-77
2023/11/16 04:55:43;;;;;;;12.20;11.70;;;9.50;99.90;;;;;;4921278;29;20455;-78
2023/11/16 04:58:13;;;;;;;12.87;12.47;;;9.60;99.90;;;;;;4918781;29;22164;-79
2023/11/16 05:00:41;;;;;;;12.73;12.33;;;9.50;1.00;;;;;;4919290;29;20475;-79
2023/11/16 05:03:10;;;;;;;12.13;11.63;;;9.50;19.60;;;;;;4920376;29;20489;-78
2023/11/16 05:05:39;;;;;;;11.93;11.50;;;9.50;99.90;;;;;;4919341;29;20541;-75
2023/11/16 05:08:07;;;;;;;11.70;11.40;;;9.60;1.00;;;;;;4918275;29;20581;-79
2023/11/16 05:10:36;;;;;;;11.93;11.20;;;9.50;14.60;;;;;;4921359;29;20854;-79
2023/11/16 05:13:04;;;;;;;11.47;11.07;;;9.50;1.00;;;;;;4920578;29;20458;-79
2023/11/16 05:15:34;;;;;;;13.20;12.70;;;9.50;99.90;;;;;;4918835;29;20464;-79
2023/11/16 05:18:04;;;;;;;12.10;11.57;;;9.50;1.00;;;;;;4917803;29;20482;-79
2023/11/16 05:20:32;;;;;;;12.70;12.00;;;9.50;1.00;;;;;;4918422;29;20449;-80
2023/11/16 05:23:00;;;;;;;12.17;11.60;;;9.50;99.90;;;;;;4920441;29;20497;-79
2023/11/16 05:25:29;;;;;;;12.83;11.93;;;9.50;99.90;;;;;;4921427;29;20542;-79
2023/11/16 05:27:57;;;;;;;12.10;11.60;;;9.50;61.60;;;;;;4920582;29;20961;-77
2023/11/16 05:30:26;;;;;;;12.80;12.27;;;9.50;1.00;;;;;;4922200;29;21208;-77
2023/11/16 05:32:55;;;;;;;12.23;11.63;;;9.40;1.00;;;;;;4916243;29;20553;-78
2023/11/16 05:35:23;;;;;;;12.77;11.97;;;9.50;1.00;;;;;;4921013;29;20450;-78
2023/11/16 05:37:52;;;;;;;11.80;11.50;;;9.50;1.00;;;;;;4918572;29;20483;-76
2023/11/16 05:40:20;;;;;;;12.30;11.67;;;9.50;1.00;;;;;;4920889;29;20453;-77
2023/11/16 05:42:48;;;;;;;13.20;12.20;;;9.50;1.00;;;;;;4923044;29;20496;-79
2023/11/16 05:45:17;;;;;;;11.73;11.43;;;9.50;1.00;;;;;;4922878;29;20462;-79
2023/11/16 05:47:46;;;;;;;12.37;11.80;;;9.50;1.00;;;;;;4922909;29;20485;-78
2023/11/16 05:50:17;;;;;;;12.47;11.97;;;9.50;1.00;;;;;;4920657;29;20472;-77
2023/11/16 05:52:45;;;;;;;12.07;11.57;;;9.50;1.00;;;;;;4918194;29;20466;-78
2023/11/16 05:55:13;;;;;;;11.53;11.23;;;9.60;1.00;;;;;;4916987;29;20982;-80
2023/11/16 05:57:42;;;;;;;12.43;11.77;;;9.50;1.00;;;;;;4916086;29;20461;-79
2023/11/16 06:00:12;;;;;;;14.47;13.77;;;9.50;1.00;;;;;;4915962;29;20465;-78
2023/11/16 06:02:40;;;;;;;13.53;12.70;;;9.50;1.00;;;;;;4920927;29;20563;-77
2023/11/16 06:05:09;;;;;;;14.70;13.87;;;9.50;1.00;;;;;;4920053;28;20469;-77
2023/11/16 06:07:42;;;;;;;13.37;12.77;;;9.50;1.00;;;;;;4921138;29;21085;-80
2023/11/16 06:10:11;;;;;;;13.20;12.70;;;9.50;1.00;;;;;;4922816;29;20464;-77
2023/11/16 06:12:39;;;;;;;13.90;13.10;;;9.50;1.00;;;;;;4926070;29;20454;-76
2023/11/16 06:15:10;;;;;;;12.00;11.60;;;9.40;1.00;;;;;;4923751;29;20576;-79
2023/11/16 06:17:38;;;;;;;12.00;11.60;;;9.40;1.00;;;;;;4919398;29;20494;-78
2023/11/16 06:20:09;;;;;;;12.00;11.70;;;9.40;1.00;;;;;;4923708;29;20465;-78
2023/11/16 06:22:38;;;;;;;12.43;12.00;;;9.40;1.00;;;;;;4922605;29;20484;-79
2023/11/16 06:25:10;;;;;;;12.80;12.20;;;9.40;1.00;;;;;;4923835;29;20464;-78
2023/11/16 06:27:39;;;;;;;13.23;12.70;;;9.40;1.00;;;;;;4922701;29;20501;-79
2023/11/16 06:30:08;;;;;;;12.27;11.87;;;9.40;99.90;;;;;;4924772;29;21026;-78
2023/11/16 06:32:37;;;;;;;12.77;12.20;;;9.40;99.90;;;;;;4921182;29;20457;-77
2023/11/16 06:35:06;;;;;;;12.40;12.00;;;9.40;99.90;;;;;;4923871;29;20453;-77
2023/11/16 06:37:34;;;;;;;13.20;12.60;;;9.40;99.90;;;;;;4922981;29;20824;-79
2023/11/16 06:40:03;;;;;;;13.40;12.43;;;9.40;99.90;;;;;;4923930;29;20985;-80
2023/11/16 06:42:36;;;;;;;13.30;12.70;;;9.50;99.90;;;;;;4921416;29;20485;-78
2023/11/16 06:45:06;;;;;;;13.07;12.33;;;9.50;99.90;;;;;;4925414;29;20457;-78
2023/11/16 06:47:36;;;;;;;13.33;12.40;;;9.50;99.90;;;;;;4920133;29;20465;-78
2023/11/16 06:50:05;;;;;;;12.50;12.10;;;9.50;99.90;;;;;;4919833;29;20465;-77
2023/11/16 06:52:36;;;;;;;12.17;11.70;;;9.50;99.90;;;;;;4923997;29;20513;-79
2023/11/16 06:55:10;;;;;;;12.50;12.00;;;9.50;99.90;;;;;;4925213;29;20458;-78
2023/11/16 06:57:40;;;;;;;12.30;11.80;;;9.50;99.90;;;;;;4921917;29;20469;-78
2023/11/16 07:00:15;;;;;;;12.80;12.10;;;9.50;99.90;;;;;;4921696;29;20955;-79
2023/11/16 07:02:45;;;;;;;11.83;11.43;;;9.50;99.90;;;;;;4921058;29;20571;-80
2023/11/16 07:05:14;;;;;;;12.23;11.80;;;9.50;99.90;;;;;;4923847;29;20460;-77
2023/11/16 07:07:42;;;;;;;12.53;12.13;;;9.50;99.90;;;;;;4921267;29;20472;-78
2023/11/16 07:10:10;;;;;;;12.63;11.87;;;9.50;99.90;;;;;;4922302;29;20458;-78
2023/11/16 07:12:41;;;;;;;13.20;12.70;;;9.50;99.90;;;;;;4922455;29;20446;-77
2023/11/16 07:15:10;;;;;;;12.10;11.70;;;9.50;99.90;;;;;;4924150;29;20456;-77
2023/11/16 07:17:40;;;;;;;12.77;12.20;;;9.50;99.90;;;;;;4922262;29;20454;-78
2023/11/16 07:20:11;;;;;;;12.30;11.87;;;9.50;99.90;;;;;;4923955;29;20453;-77
2023/11/16 07:22:40;;;;;;;12.47;11.90;;;9.50;99.90;;;;;;4922195;29;20841;-80
2023/11/16 07:25:09;;;;;;;11.80;11.20;;;9.50;99.90;;;;;;4924029;29;20459;-78
2023/11/16 07:27:38;;;;;;;12.00;11.60;;;9.50;99.90;;;;;;4921247;29;20464;-80
2023/11/16 07:30:09;;;;;;;12.07;11.57;;;9.50;99.90;;;;;;4921304;29;20454;-75
2023/11/16 07:32:37;;;;;;;11.43;11.03;;;9.60;99.90;;;;;;4919089;29;20504;-77
2023/11/16 07:35:14;;;;;;;11.90;11.30;;;9.50;99.90;;;;;;4922137;29;20473;-78
2023/11/16 07:37:44;;;;;;;11.70;11.30;;;9.50;99.90;;;;;;4923494;29;20457;-77
2023/11/16 07:40:13;;;;;;;11.43;11.13;;;9.50;99.90;;;;;;4924579;29;20453;-78
2023/11/16 07:42:41;;;;;;;12.67;12.27;;;9.60;99.90;;;;;;4920665;29;20461;-78
2023/11/16 07:45:12;;;;;;;11.97;11.47;;;9.50;99.90;;;;;;4922679;29;20524;-77
2023/11/16 07:47:41;;;;;;;12.23;11.80;;;9.60;99.90;;;;;;4922841;29;20461;-76
2023/11/16 07:50:13;;;;;;;11.87;11.47;;;9.60;99.90;;;;;;4920558;29;20458;-78
2023/11/16 07:52:47;;;;;;;12.67;12.17;;;9.60;99.90;;;;;;4920377;29;20508;-79
2023/11/16 07:55:18;;;;;;;12.97;12.37;;;9.60;99.90;;;;;;4921902;29;21272;-78
2023/11/16 07:57:48;;;;;;;13.00;12.40;;;9.60;99.90;;;;;;4920855;29;20573;-78
2023/11/16 08:00:26;;;;;;;12.30;11.80;;;9.70;99.90;;;;;;4924095;29;20441;-78
2023/11/16 08:05:42;;;;;;;12.70;12.30;;;9.70;99.90;;;;;;4921179;29;20461;-81
2023/11/16 08:08:13;;;;;;;12.70;12.10;;;9.70;99.90;;;;;;4923955;29;20493;-78
2023/11/16 08:10:43;;;;;;;12.13;11.50;;;9.80;99.90;;;;;;4919674;29;20498;-78
2023/11/16 08:13:12;;;;;;;12.90;12.10;;;9.70;99.90;;;;;;4918026;29;20462;-79
2023/11/16 08:15:41;;;;;;;13.20;12.40;;;9.80;99.90;;;;;;4920916;29;20537;-77
2023/11/16 08:18:12;;;;;;;12.67;12.17;;;9.80;99.90;;;;;;4919425;29;20477;-78
2023/11/16 08:20:41;;;;;;;12.60;12.20;;;9.70;32.50;;;;;;4922507;29;20460;-77
2023/11/16 08:23:10;;;;;;;12.50;12.00;;;9.70;99.90;;;;;;4919474;29;20450;-79
2023/11/16 08:25:38;;;;;;;12.60;12.30;;;9.70;49.00;;;;;;4922014;29;20831;-79
2023/11/16 08:28:08;;;;;;;12.80;12.30;;;9.80;99.90;;;;;;4919789;29;20488;-77
2023/11/16 08:30:37;;;;;;;13.27;12.33;;;9.70;44.70;;;;;;4923839;29;20438;-77
2023/11/16 08:33:08;;;;;;;13.50;12.93;;;9.70;99.30;;;;;;4922640;29;20473;-77
2023/11/16 08:35:37;;;;;;;12.50;12.00;;;9.80;71.80;;;;;;4923072;29;20472;-78
2023/11/16 08:38:07;;;;;;;12.60;12.20;;;9.80;53.90;;;;;;4920521;29;20498;-78
2023/11/16 08:40:36;;;;;;;12.17;11.77;;;9.80;1.00;;;;;;4923202;29;20445;-79
2023/11/16 08:43:10;;;;;;;12.23;11.73;;;9.80;26.40;;;;;;4920734;29;20518;-79
2023/11/16 08:45:39;;;;;;;12.97;12.67;;;9.90;1.00;;;;;;4921220;29;20453;-78
2023/11/16 08:48:11;;;;;;;13.60;12.80;;;9.90;1.00;;;;;;4921179;29;21044;-78
2023/11/16 08:50:42;;;;;;;12.60;12.00;;;9.90;1.00;;;;;;4918057;29;20457;-77
2023/11/16 08:53:12;;;;;;;12.80;12.50;;;9.80;1.00;;;;;;4923181;29;20460;-78
2023/11/16 08:55:42;;;;;;;12.30;11.83;;;9.80;1.00;;;;;;4918490;29;20465;-77
2023/11/16 08:58:11;;;;;;;12.70;12.10;;;9.80;1.00;;;;;;4921270;29;20482;-78
2023/11/16 09:00:45;;;;;;;12.87;12.03;;;9.80;1.00;;;;;;4920023;29;20975;-79
2023/11/16 09:03:18;;;;;;;13.30;12.63;;;9.80;1.00;;;;;;4921421;29;20579;-78
2023/11/16 09:05:47;;;;;;;12.97;12.57;;;9.90;1.00;;;;;;4920518;29;20450;-82
2023/11/16 09:08:19;;;;;;;13.00;12.70;;;9.90;1.00;;;;;;4920547;29;21385;-78
2023/11/16 09:10:49;;;;;;;13.73;13.07;;;9.90;1.00;;;;;;4922373;29;20592;-78
2023/11/16 09:13:17;;;;;;;13.73;12.97;;;9.90;1.00;;;;;;4920006;29;20512;-79
2023/11/16 09:15:46;;;;;;;13.00;12.43;;;10.00;1.00;;;;;;4918845;29;20453;-79
2023/11/16 09:18:15;;;;;;;12.97;12.50;;;10.00;1.00;;;;;;4921650;29;20533;-78
2023/11/16 09:20:46;;;;;;;14.00;13.50;;;10.00;1.00;;;;;;4921263;29;20466;-77
2023/11/16 09:23:15;;;;;;;15.50;14.70;;;10.00;1.00;;;;;;4920033;29;20460;-77
2023/11/16 09:25:44;;;;;;;14.43;13.93;;;10.10;1.00;;;;;;4916081;29;20593;-80
2023/11/16 09:28:13;;;;;;;12.90;12.47;;;10.10;99.90;;;;;;4922076;29;20497;-78
2023/11/16 09:30:43;;;;;;;12.50;11.90;;;10.00;99.90;;;;;;4922785;29;20565;-79
2023/11/16 09:33:12;;;;;;;12.23;11.83;;;10.00;99.90;;;;;;4917755;29;20835;-79
2023/11/16 09:35:42;;;;;;;12.87;12.10;;;9.90;99.90;;;;;;4919691;29;20450;-78
2023/11/16 09:38:10;;;;;;;12.37;11.87;;;9.90;99.90;;;;;;4920634;29;20490;-78
2023/11/16 09:40:39;;;;;;;12.17;11.67;;;9.90;99.90;;;;;;4922959;29;20457;-79
2023/11/16 09:43:20;;;;;;;12.83;12.30;;;10.00;99.90;;;;;;4925913;29;20458;-79
2023/11/16 09:45:50;;;;;;;12.73;12.33;;;10.00;99.90;;;;;;4924915;29;20481;-79
2023/11/16 09:48:20;;;;;;;13.93;13.03;;;10.00;99.90;;;;;;4924847;29;20938;-78
2023/11/16 09:50:53;;;;;;;13.03;12.60;;;10.00;99.90;;;;;;4927377;29;20461;-78
2023/11/16 09:53:23;;;;;;;12.50;12.20;;;10.00;99.90;;;;;;4926266;29;20461;-77
2023/11/16 09:55:57;;;;;;;12.40;12.10;;;10.10;99.90;;;;;;4924635;29;20907;-77
2023/11/16 09:58:27;;;;;;;12.37;11.70;;;10.10;99.90;;;;;;4925401;29;20499;-79
2023/11/16 10:00:57;;;;;;;15.37;14.30;;;10.10;99.90;;;;;;4928637;29;20458;-77
2023/11/16 10:03:30;;;;;;;14.10;13.20;;;10.00;99.90;;;;;;4922144;29;20997;-77
2023/11/16 10:06:01;;;;;;;15.83;15.03;;;10.00;99.90;;;;;;4923840;29;20589;-76
2023/11/16 10:08:29;;;;;;;12.07;11.57;;;9.90;99.90;;;;;;4921816;29;20577;-77
2023/11/16 10:11:00;;;;;;;12.53;11.73;;;9.80;99.90;;;;;;4920852;29;20513;-79
2023/11/16 10:13:29;;;;;;;13.80;13.00;;;9.90;99.90;;;;;;4924943;29;20490;-80
2023/11/16 10:16:02;;;;;;;12.80;12.30;;;9.90;99.90;;;;;;4923715;29;20494;-78
2023/11/16 10:18:31;;;;;;;12.80;12.30;;;10.00;99.90;;;;;;4924731;29;20482;-78
2023/11/16 10:21:00;;;;;;;12.50;11.53;;;10.00;99.90;;;;;;4922207;29;20468;-78
2023/11/16 10:23:29;;;;;;;11.83;11.10;;;10.00;99.90;;;;;;4920427;29;20553;-78
2023/11/16 10:25:59;;;;;;;12.30;11.47;;;10.10;99.90;;;;;;4919895;29;20540;-79
2023/11/16 10:28:28;;;;;;;12.17;11.60;;;10.10;99.90;;;;;;4922026;29;20482;-79
2023/11/16 10:30:57;;;;;;;12.03;11.30;;;10.10;99.90;;;;;;4925407;29;20453;-79
2023/11/16 10:33:28;;;;;;;12.40;11.60;;;10.10;76.80;;;;;;4924140;29;20557;-77
2023/11/16 10:36:00;;;;;;;11.77;11.27;;;10.10;65.10;;;;;;4923904;29;20660;-78
2023/11/16 10:38:29;;;;;;;11.80;11.50;;;10.10;18.10;;;;;;4924102;29;20469;-79
2023/11/16 10:40:58;;;;;;;11.43;11.13;;;10.10;23.20;;;;;;4926834;29;20581;-78
2023/11/16 10:43:27;;;;;;;12.70;12.10;;;10.10;40.00;;;;;;4922827;29;20467;-77
2023/11/16 10:45:59;;;;;;;11.80;11.30;;;10.10;26.00;;;;;;4920611;29;20481;-80
2023/11/16 10:48:28;;;;;;;11.77;11.37;;;10.00;18.80;;;;;;4923731;29;20478;-80
2023/11/16 10:50:59;;;;;;;12.63;11.93;;;10.10;65.90;;;;;;4923023;29;20549;-79
2023/11/16 10:53:33;;;;;;;12.43;11.70;;;10.10;97.20;;;;;;4922700;29;20959;-78
2023/11/16 10:56:07;;;;;;;11.60;11.30;;;10.10;98.00;;;;;;4922272;29;20608;-79
2023/11/16 10:58:40;;;;;;;10.97;10.67;;;10.10;68.60;;;;;;4925861;29;20587;-79
2023/11/16 11:01:11;;;;;;;11.57;10.87;;;10.20;72.40;;;;;;4923841;29;20473;-79
2023/11/16 11:03:45;;;;;;;11.30;10.80;;;10.10;52.90;;;;;;4922067;29;20863;-78
2023/11/16 11:06:18;;;;;;;11.83;11.20;;;10.10;53.60;;;;;;4920939;29;20581;-78
2023/11/16 11:08:48;;;;;;;10.90;10.50;;;10.00;71.10;;;;;;4923868;29;20570;-80
2023/11/16 11:11:24;;;;;;;10.97;10.47;;;10.10;57.60;;;;;;4922986;29;20500;-79
2023/11/16 11:13:56;;;;;;;11.60;11.20;;;10.20;74.00;;;;;;4925421;29;20504;-77
2023/11/16 11:16:27;;;;;;;12.10;11.70;;;10.20;54.10;;;;;;4923935;29;20553;-79
2023/11/16 11:18:57;;;;;;;11.87;11.27;;;10.30;91.80;;;;;;4923220;29;20504;-77
2023/11/16 11:21:26;;;;;;;12.30;11.83;;;10.30;99.90;;;;;;4924973;29;21152;-76
2023/11/16 11:24:04;;;;;;;12.93;12.07;;;10.40;75.20;;;;;;4921160;29;20512;-78
2023/11/16 11:26:43;;;;;;;12.80;12.40;;;10.40;17.30;;;;;;4924885;29;20556;-78
2023/11/16 11:29:12;;;;;;;12.30;11.90;;;10.40;16.50;;;;;;4923410;29;20588;-78
2023/11/16 11:31:50;;;;;;;12.40;12.00;;;10.40;1.00;;;;;;4924135;29;20549;-77
2023/11/16 11:34:26;;;;;;;12.73;11.93;;;10.40;1.00;;;;;;4923762;29;20552;-78
2023/11/16 11:36:55;;;;;;;11.70;11.10;;;10.40;1.00;;;;;;4922989;29;20463;-81
2023/11/16 11:39:35;;;;;;;11.83;11.40;;;10.40;1.00;;;;;;4922646;29;20477;-78
2023/11/16 11:42:04;;;;;;;11.47;11.17;;;10.40;1.00;;;;;;4921646;29;20452;-79
2023/11/16 11:44:32;;;;;;;12.07;11.60;;;10.50;1.00;;;;;;4922192;29;20473;-78
2023/11/16 11:47:01;;;;;;;12.70;12.30;;;10.40;1.00;;;;;;4921561;29;20849;-79
2023/11/16 11:49:29;;;;;;;12.40;11.60;;;10.50;1.00;;;;;;4922083;29;20476;-78
2023/11/16 11:52:00;;;;;;;12.00;11.40;;;10.50;1.00;;;;;;4921558;29;20458;-80
2023/11/16 11:54:36;;;;;;;12.27;11.60;;;10.60;1.00;;;;;;4918442;29;20956;-81
2023/11/16 11:57:06;;;;;;;12.00;11.37;;;10.50;1.00;;;;;;4924351;29;20441;-79
2023/11/16 11:59:35;;;;;;;12.27;11.67;;;10.50;1.00;;;;;;4922156;29;20546;-80
2023/11/16 12:02:07;;;;;;;11.33;11.03;;;10.40;1.00;;;;;;4921726;29;20457;-80
2023/11/16 12:04:36;;;;;;;11.63;11.20;;;10.50;1.00;;;;;;4920854;29;20498;-78
2023/11/16 12:07:07;;;;;;;11.93;11.50;;;10.50;1.00;;;;;;4920422;29;20490;-79
2023/11/16 12:09:38;;;;;;;12.67;12.30;;;10.50;1.00;;;;;;4919349;29;20871;-78
2023/11/16 12:12:08;;;;;;;12.70;12.20;;;10.50;1.00;;;;;;4923787;29;20466;-77
2023/11/16 12:14:41;;;;;;;12.23;11.63;;;10.50;1.00;;;;;;4922948;29;20453;-78
2023/11/16 12:17:15;;;;;;;12.20;11.77;;;10.50;1.00;;;;;;4923640;29;21038;-78
2023/11/16 12:19:47;;;;;;;12.40;12.00;;;10.50;1.00;;;;;;4918513;29;20576;-79
2023/11/16 12:22:17;;;;;;;12.07;11.67;;;10.60;1.00;;;;;;4922630;29;20453;-80
2023/11/16 12:24:48;;;;;;;12.50;11.93;;;10.60;1.00;;;;;;4921793;29;20465;-77
2023/11/16 12:27:17;;;;;;;12.30;11.90;;;10.60;1.00;;;;;;4918941;29;20482;-78
2023/11/16 12:29:55;;;;;;;13.17;12.40;;;10.60;1.00;;;;;;4920887;29;20473;-77
2023/11/16 12:32:25;;;;;;;12.83;12.43;;;10.60;1.00;;;;;;4918964;29;20556;-80
2023/11/16 12:34:54;;;;;;;13.50;12.90;;;10.60;1.00;;;;;;4919721;29;20542;-77
2023/11/16 12:37:22;;;;;;;13.27;12.70;;;10.50;1.00;;;;;;4920600;29;20474;-78
2023/11/16 12:39:52;;;;;;;12.40;12.00;;;10.50;1.00;;;;;;4920372;29;20478;-79
2023/11/16 12:42:22;;;;;;;13.40;12.97;;;10.60;1.00;;;;;;4921806;29;20952;-78
2023/11/16 12:44:52;;;;;;;12.30;11.90;;;10.60;1.00;;;;;;4921465;29;20608;-77
2023/11/16 12:47:20;;;;;;;12.80;12.30;;;10.50;1.00;;;;;;4919850;29;20476;-79
2023/11/16 12:49:51;;;;;;;13.70;13.10;;;10.50;1.00;;;;;;4919519;29;20537;-79
2023/11/16 12:52:21;;;;;;;12.53;12.17;;;10.50;1.00;;;;;;4922738;29;20490;-78
2023/11/16 12:54:49;;;;;;;13.87;13.00;;;10.50;62.90;;;;;;4922069;29;20508;-79